Time;durP1;ratioP1;P1;durP2;ratioP2;P2;SDS_P1;SDS_P2;PMS_P1;PMS_P2;Temp;Humidity;BMP_temperature;BMP_pressure;BME280_temperature;BME280_humidity;BME280_pressure;Samples;Min_cycle;Max_cycle;Signal;HPM_P1;HPM_P2
2021/03/15 00:01:02;;;;;;;5.97;1.33;;;5.50;85.10;;;;;;6215015;23;20001;-77
2021/03/15 00:03:28;;;;;;;1.37;1.00;;;5.50;85.00;;;;;;6215799;23;20047;-79
2021/03/15 00:05:53;;;;;;;2.90;1.37;;;5.50;85.10;;;;;;6216096;23;20004;-78
2021/03/15 00:08:20;;;;;;;2.60;1.20;;;5.50;85.00;;;;;;6213684;23;20039;-78
2021/03/15 00:10:46;;;;;;;3.23;1.30;;;5.50;85.00;;;;;;6214645;23;20062;-78
2021/03/15 00:13:14;;;;;;;4.47;1.30;;;5.50;84.90;;;;;;6214674;23;19997;-78
2021/03/15 00:15:40;;;;;;;3.53;1.20;;;5.50;84.90;;;;;;6213992;23;20008;-78
2021/03/15 00:18:05;;;;;;;2.43;1.30;;;5.50;84.90;;;;;;6213914;23;20009;-78
2021/03/15 00:20:32;;;;;;;2.27;0.90;;;5.40;85.00;;;;;;6214730;23;20028;-80
2021/03/15 00:22:58;;;;;;;3.73;1.20;;;5.40;85.10;;;;;;6213957;23;20028;-80
2021/03/15 00:25:24;;;;;;;4.23;1.80;;;5.40;85.20;;;;;;6212634;23;20446;-79
2021/03/15 00:27:50;;;;;;;4.23;1.20;;;5.30;85.10;;;;;;6214387;23;20076;-79
2021/03/15 00:30:17;;;;;;;3.27;1.20;;;5.30;85.10;;;;;;6215169;23;20007;-79
2021/03/15 00:32:44;;;;;;;6.37;1.50;;;5.30;85.20;;;;;;6214087;23;20127;-78
2021/03/15 00:35:12;;;;;;;4.30;1.30;;;5.30;85.30;;;;;;6213326;23;20413;-78
2021/03/15 00:37:40;;;;;;;3.60;1.00;;;5.30;85.40;;;;;;6213819;23;20424;-78
2021/03/15 00:40:08;;;;;;;4.87;1.47;;;5.30;85.50;;;;;;6213494;23;20039;-82
2021/03/15 00:42:33;;;;;;;4.33;1.30;;;5.30;85.40;;;;;;6214079;23;20012;-78
2021/03/15 00:44:59;;;;;;;6.03;1.90;;;5.30;86.00;;;;;;6212878;23;20001;-79
2021/03/15 00:47:25;;;;;;;4.00;1.43;;;5.30;85.50;;;;;;6216107;23;20002;-75
2021/03/15 00:49:51;;;;;;;4.07;1.27;;;5.30;85.70;;;;;;6216109;23;20012;-76
2021/03/15 00:52:16;;;;;;;3.07;1.47;;;5.30;85.80;;;;;;6214713;23;20082;-76
2021/03/15 00:54:42;;;;;;;6.60;1.50;;;5.30;85.80;;;;;;6215645;23;20424;-77
2021/03/15 00:57:07;;;;;;;4.70;1.40;;;5.20;85.70;;;;;;6213818;23;20008;-83
2021/03/15 00:59:33;;;;;;;4.27;1.20;;;5.20;85.80;;;;;;6214605;23;20447;-79
2021/03/15 01:01:59;;;;;;;3.77;1.60;;;5.30;85.80;;;;;;6215077;23;20009;-78
2021/03/15 01:04:24;;;;;;;5.23;1.30;;;5.20;85.80;;;;;;6214981;23;20062;-75
2021/03/15 01:06:50;;;;;;;5.00;1.60;;;5.30;85.80;;;;;;6216287;23;20455;-76
2021/03/15 01:09:17;;;;;;;6.47;1.63;;;5.20;85.80;;;;;;6213778;23;20059;-78
2021/03/15 01:11:42;;;;;;;5.73;1.37;;;5.20;85.90;;;;;;6215202;23;20001;-78
2021/03/15 01:14:09;;;;;;;6.33;1.70;;;5.20;86.00;;;;;;6214335;23;20012;-83
2021/03/15 01:16:35;;;;;;;5.93;1.60;;;5.20;86.00;;;;;;6214849;23;20092;-77
2021/03/15 01:19:01;;;;;;;4.67;1.67;;;5.20;86.10;;;;;;6215285;23;20117;-79
2021/03/15 01:21:27;;;;;;;5.17;1.67;;;5.20;86.00;;;;;;6214926;23;20004;-77
2021/03/15 01:23:53;;;;;;;7.37;1.73;;;5.20;86.00;;;;;;6216100;23;20375;-78
2021/03/15 01:26:19;;;;;;;5.87;1.30;;;5.20;85.90;;;;;;6214788;23;20008;-77
2021/03/15 01:28:45;;;;;;;5.23;1.43;;;5.20;85.80;;;;;;6216600;23;20036;-78
2021/03/15 01:31:11;;;;;;;5.57;1.60;;;5.20;85.70;;;;;;6215113;23;20087;-78
2021/03/15 01:33:36;;;;;;;4.60;1.57;;;5.30;85.60;;;;;;6215479;23;20001;-77
2021/03/15 01:36:02;;;;;;;5.10;1.93;;;5.30;85.50;;;;;;6216762;23;20087;-77
2021/03/15 01:38:28;;;;;;;10.73;1.50;;;5.30;85.60;;;;;;6216350;23;20060;-77
2021/03/15 01:40:54;;;;;;;5.10;1.70;;;5.30;85.60;;;;;;6215543;23;20004;-78
2021/03/15 01:43:20;;;;;;;6.37;1.70;;;5.30;85.50;;;;;;6215166;23;20011;-77
2021/03/15 01:45:45;;;;;;;4.97;1.60;;;5.40;85.40;;;;;;6216664;23;20032;-75
2021/03/15 01:48:13;;;;;;;4.03;1.80;;;5.40;85.30;;;;;;6215408;23;19997;-75
2021/03/15 01:50:46;;;;;;;7.97;1.63;;;5.40;85.20;;;;;;6215713;23;20378;-78
2021/03/15 01:53:14;;;;;;;6.17;1.70;;;5.30;85.10;;;;;;6216515;23;20000;-77
2021/03/15 01:55:40;;;;;;;6.67;1.80;;;5.40;85.30;;;;;;6216346;23;20031;-77
2021/03/15 01:58:06;;;;;;;8.10;1.60;;;5.40;85.20;;;;;;6214417;23;20428;-80
2021/03/15 02:00:32;;;;;;;5.30;1.40;;;5.40;85.20;;;;;;6215621;23;20004;-77
2021/03/15 02:03:00;;;;;;;4.63;1.27;;;5.40;85.30;;;;;;6215294;23;20011;-77
2021/03/15 02:05:27;;;;;;;3.33;1.47;;;5.40;85.30;;;;;;6213947;23;20008;-78
2021/03/15 02:07:54;;;;;;;6.67;1.70;;;5.40;85.30;;;;;;6214227;23;20017;-75
2021/03/15 02:10:20;;;;;;;6.33;1.80;;;5.40;85.40;;;;;;6215834;23;20000;-75
2021/03/15 02:13:13;;;;;;;5.63;1.50;;;5.40;85.40;;;;;;6214727;23;20011;-75
2021/03/15 02:16:00;;;;;;;3.50;1.33;;;5.40;85.60;;;;;;6214475;23;20420;-75
2021/03/15 02:18:56;;;;;;;4.23;1.57;;;5.40;85.50;;;;;;6215702;23;20004;-75
2021/03/15 02:22:00;;;;;;;4.53;1.60;;;5.40;85.40;;;;;;6214845;23;20000;-78
2021/03/15 02:24:38;;;;;;;8.57;2.20;;;5.40;85.40;;;;;;6214950;23;20000;-78
2021/03/15 02:27:43;;;;;;;9.80;2.20;;;5.30;85.60;;;;;;6215481;23;20012;-78
2021/03/15 02:30:24;;;;;;;5.27;1.80;;;5.30;85.60;;;;;;6216871;23;20007;-81
2021/03/15 02:33:15;;;;;;;7.20;1.85;;;5.40;85.70;;;;;;6216284;23;20428;-76
2021/03/15 02:35:43;;;;;;;7.90;2.03;;;5.40;85.60;;;;;;6214647;23;20005;-78
2021/03/15 02:38:11;;;;;;;5.03;2.10;;;5.40;85.60;;;;;;6213869;23;20087;-85
2021/03/15 02:40:49;;;;;;;3.90;1.60;;;5.40;85.60;;;;;;6213751;23;19996;-78
2021/03/15 02:43:34;;;;;;;5.83;1.63;;;5.40;85.70;;;;;;6215806;23;20001;-77
2021/03/15 02:46:03;;;;;;;4.80;1.67;;;5.40;85.70;;;;;;6215526;23;20004;-78
2021/03/15 02:48:32;;;;;;;6.33;2.13;;;5.50;85.60;;;;;;6216272;23;19996;-76
2021/03/15 02:50:59;;;;;;;4.60;1.40;;;5.40;85.60;;;;;;6215036;23;20104;-78
2021/03/15 02:53:26;;;;;;;3.97;1.50;;;5.50;85.60;;;;;;6215839;23;20073;-78
2021/03/15 02:56:03;;;;;;;5.37;1.60;;;5.50;85.40;;;;;;6216164;23;20032;-75
2021/03/15 02:58:30;;;;;;;5.80;1.40;;;5.50;85.40;;;;;;6214599;23;20572;-76
2021/03/15 03:00:58;;;;;;;3.50;1.43;;;5.50;85.30;;;;;;6214812;23;20005;-75
2021/03/15 03:03:26;;;;;;;4.13;1.20;;;5.50;85.30;;;;;;6214683;23;20007;-75
2021/03/15 03:05:54;;;;;;;3.37;1.30;;;5.50;85.20;;;;;;6214901;23;20008;-75
2021/03/15 03:08:21;;;;;;;6.13;1.10;;;5.50;85.30;;;;;;6214288;23;20013;-76
2021/03/15 03:10:48;;;;;;;4.53;1.47;;;5.50;85.30;;;;;;6216888;23;20412;-75
2021/03/15 03:13:17;;;;;;;2.40;1.40;;;5.50;85.40;;;;;;6215655;23;20004;-79
2021/03/15 03:15:45;;;;;;;3.33;1.33;;;5.50;85.30;;;;;;6215166;23;20075;-79
2021/03/15 03:18:15;;;;;;;3.30;1.30;;;5.50;85.40;;;;;;6216343;23;19996;-83
2021/03/15 03:20:43;;;;;;;3.03;1.63;;;5.50;85.50;;;;;;6216201;23;20076;-75
2021/03/15 03:23:10;;;;;;;4.17;1.27;;;5.50;85.60;;;;;;6214041;23;20012;-81
2021/03/15 03:25:36;;;;;;;4.23;1.20;;;5.40;85.80;;;;;;6213975;23;20103;-75
2021/03/15 03:28:04;;;;;;;8.73;1.70;;;5.50;86.00;;;;;;6213925;23;19997;-74
2021/03/15 03:30:32;;;;;;;1.43;1.20;;;5.50;85.70;;;;;;6213642;23;20275;-75
2021/03/15 03:33:01;;;;;;;6.57;1.30;;;5.50;85.80;;;;;;6214017;23;20001;-75
2021/03/15 03:35:27;;;;;;;3.17;1.40;;;5.50;85.90;;;;;;6213640;23;20023;-77
2021/03/15 03:37:54;;;;;;;5.07;1.60;;;5.50;86.10;;;;;;6214001;23;20008;-78
2021/03/15 03:40:20;;;;;;;2.80;1.23;;;5.50;86.10;;;;;;6213820;23;20004;-75
2021/03/15 03:42:46;;;;;;;3.03;1.30;;;5.50;86.10;;;;;;6214508;23;20000;-75
2021/03/15 03:45:12;;;;;;;5.30;1.50;;;5.50;86.20;;;;;;6212165;23;20027;-79
2021/03/15 03:47:41;;;;;;;9.03;1.70;;;5.50;86.10;;;;;;6213809;23;20447;-77
2021/03/15 03:50:11;;;;;;;5.60;1.27;;;5.50;86.40;;;;;;6213737;23;20000;-77
2021/03/15 03:52:39;;;;;;;3.43;1.30;;;5.50;86.20;;;;;;6213317;23;20001;-75
2021/03/15 03:55:09;;;;;;;4.07;1.43;;;5.50;86.10;;;;;;6213571;23;20055;-75
2021/03/15 03:57:37;;;;;;;8.07;1.67;;;5.50;86.10;;;;;;6213360;23;20008;-75
2021/03/15 04:00:12;;;;;;;6.37;1.30;;;5.50;86.10;;;;;;6213599;23;20062;-75
2021/03/15 04:03:09;;;;;;;2.20;1.40;;;5.50;86.10;;;;;;6213554;23;20039;-75
2021/03/15 04:05:36;;;;;;;3.20;1.30;;;5.50;86.20;;;;;;6213779;23;20043;-75
2021/03/15 04:08:08;;;;;;;6.20;1.40;;;5.60;86.30;;;;;;6225826;23;20020;-77
2021/03/15 04:10:35;;;;;;;3.10;1.10;;;5.60;86.30;;;;;;6218007;23;20343;-75
2021/03/15 04:13:12;;;;;;;5.77;1.20;;;5.50;86.50;;;;;;6218767;23;20457;-76
2021/03/15 04:15:45;;;;;;;4.03;1.20;;;5.60;86.50;;;;;;6218342;23;20004;-75
2021/03/15 04:18:17;;;;;;;4.03;1.10;;;5.50;86.60;;;;;;6217760;23;20501;-82
2021/03/15 04:20:44;;;;;;;3.27;1.30;;;5.50;86.90;;;;;;6219126;23;20004;-75
2021/03/15 04:23:15;;;;;;;2.20;1.20;;;5.50;87.60;;;;;;6219502;23;20062;-80
2021/03/15 04:25:44;;;;;;;8.80;1.43;;;5.40;87.80;;;;;;6246631;23;20000;-75
2021/03/15 04:28:12;;;;;;;5.70;1.53;;;5.40;88.30;;;;;;6219492;23;20012;-75
2021/03/15 04:30:38;;;;;;;5.20;1.37;;;5.40;88.50;;;;;;6218976;23;20051;-75
2021/03/15 04:33:05;;;;;;;7.83;1.67;;;5.40;88.70;;;;;;6219677;23;20000;-76
2021/03/15 04:35:33;;;;;;;3.93;1.87;;;5.40;89.00;;;;;;6218899;23;20490;-75
2021/03/15 04:38:00;;;;;;;2.73;1.30;;;5.40;89.10;;;;;;6246571;23;20062;-76
2021/03/15 04:40:28;;;;;;;3.57;1.20;;;5.40;89.40;;;;;;6219102;23;20003;-76
2021/03/15 04:42:59;;;;;;;3.70;1.30;;;5.40;90.10;;;;;;6219419;23;20035;-77
2021/03/15 04:45:32;;;;;;;6.40;1.50;;;5.40;89.50;;;;;;6246025;23;20019;-76
2021/03/15 04:48:00;;;;;;;6.97;1.40;;;5.40;89.70;;;;;;6220823;23;20003;-76
2021/03/15 04:50:27;;;;;;;4.97;1.43;;;5.30;90.10;;;;;;6247071;23;19996;-77
2021/03/15 04:52:54;;;;;;;4.53;1.60;;;5.40;90.10;;;;;;6247268;23;20063;-76
2021/03/15 04:55:20;;;;;;;4.73;1.30;;;5.30;90.30;;;;;;6220291;23;20009;-76
2021/03/15 04:57:48;;;;;;;5.07;1.57;;;5.30;90.50;;;;;;6247536;23;20004;-75
2021/03/15 05:00:15;;;;;;;3.63;1.13;;;5.30;90.60;;;;;;6247643;23;20030;-81
2021/03/15 05:02:46;;;;;;;3.63;1.60;;;5.30;90.60;;;;;;6220664;23;20448;-75
2021/03/15 05:05:15;;;;;;;8.05;1.65;;;5.30;90.60;;;;;;6219941;23;20007;-82
2021/03/15 05:07:43;;;;;;;4.93;1.80;;;5.30;90.80;;;;;;6214841;23;20017;-76
2021/03/15 05:10:11;;;;;;;2.93;1.43;;;5.30;90.80;;;;;;6214613;23;20055;-76
2021/03/15 05:12:37;;;;;;;4.10;1.73;;;5.30;90.70;;;;;;6215275;23;20323;-76
2021/03/15 05:15:07;;;;;;;4.43;1.63;;;5.30;90.90;;;;;;6214938;23;20427;-75
2021/03/15 05:17:38;;;;;;;4.97;1.60;;;5.30;90.40;;;;;;6214685;23;20005;-76
2021/03/15 05:20:14;;;;;;;4.33;1.80;;;5.20;90.50;;;;;;6216859;23;20008;-76
2021/03/15 05:22:42;;;;;;;5.53;1.40;;;5.20;90.80;;;;;;6216645;23;20048;-76
2021/03/15 05:25:10;;;;;;;8.27;1.93;;;5.10;90.60;;;;;;6216906;23;20071;-77
2021/03/15 05:27:36;;;;;;;4.63;1.27;;;5.10;90.80;;;;;;6216158;23;20004;-76
2021/03/15 05:30:07;;;;;;;3.20;1.63;;;5.20;90.80;;;;;;6216614;23;20048;-77
2021/03/15 05:32:37;;;;;;;3.00;1.60;;;5.20;90.40;;;;;;6215560;23;20001;-77
2021/03/15 05:35:04;;;;;;;3.37;1.30;;;5.10;90.40;;;;;;6215888;23;20032;-77
2021/03/15 05:37:31;;;;;;;3.53;1.00;;;5.10;90.30;;;;;;6214864;23;20001;-77
2021/03/15 05:39:57;;;;;;;4.00;1.10;;;5.10;90.20;;;;;;6215661;23;20009;-76
2021/03/15 05:42:22;;;;;;;3.13;1.13;;;5.10;90.30;;;;;;6216539;23;20538;-77
2021/03/15 05:45:20;;;;;;;4.73;1.27;;;5.10;90.50;;;;;;6216345;23;20466;-77
2021/03/15 05:48:08;;;;;;;2.07;1.20;;;5.10;90.70;;;;;;6150165;23;20083;-76
2021/03/15 05:50:49;;;;;;;1.97;1.03;;;5.10;90.60;;;;;;6213797;23;20008;-77
2021/03/15 05:53:50;;;;;;;1.50;1.10;;;5.10;90.40;;;;;;6215797;23;20000;-83
2021/03/15 05:56:18;;;;;;;3.07;0.90;;;5.00;90.10;;;;;;6209586;23;20008;-85
2021/03/15 05:59:02;;;;;;;2.87;1.03;;;5.00;90.10;;;;;;6214031;23;20005;-76
2021/03/15 06:01:46;;;;;;;2.23;1.00;;;5.00;90.10;;;;;;6214029;23;20032;-77
2021/03/15 06:04:44;;;;;;;3.40;0.90;;;4.90;90.00;;;;;;6214248;23;20005;-77
2021/03/15 06:07:14;;;;;;;3.20;1.00;;;4.90;90.10;;;;;;6214384;23;20079;-76
2021/03/15 06:09:54;;;;;;;1.50;1.13;;;4.90;90.00;;;;;;6246031;23;19996;-76
2021/03/15 06:12:24;;;;;;;2.20;0.83;;;4.90;90.20;;;;;;6246264;23;20067;-76
2021/03/15 06:14:52;;;;;;;2.67;0.90;;;5.00;90.30;;;;;;6219345;23;20311;-77
2021/03/15 06:17:19;;;;;;;2.07;1.20;;;4.90;90.40;;;;;;6216105;23;20087;-79
2021/03/15 06:19:47;;;;;;;2.80;0.90;;;4.90;90.50;;;;;;6246239;23;20001;-76
2021/03/15 06:22:14;;;;;;;2.47;1.00;;;4.90;90.40;;;;;;6219794;23;20004;-76
2021/03/15 06:24:40;;;;;;;1.30;1.20;;;4.90;90.60;;;;;;6246455;23;20067;-76
2021/03/15 06:27:08;;;;;;;3.87;1.07;;;4.90;90.60;;;;;;6247128;23;20000;-77
2021/03/15 06:29:34;;;;;;;2.33;0.93;;;4.90;90.90;;;;;;6219545;23;20062;-76
2021/03/15 06:32:01;;;;;;;2.73;1.10;;;4.90;91.10;;;;;;6220716;23;20031;-77
2021/03/15 06:34:28;;;;;;;2.87;1.17;;;4.90;91.10;;;;;;6246050;23;20011;-77
2021/03/15 06:36:55;;;;;;;1.80;1.13;;;4.90;91.20;;;;;;6220029;23;20007;-78
2021/03/15 06:39:23;;;;;;;2.57;1.17;;;4.90;91.20;;;;;;6219487;23;20070;-77
2021/03/15 06:41:53;;;;;;;2.57;1.10;;;4.90;91.40;;;;;;6219976;23;20123;-77
2021/03/15 06:44:19;;;;;;;4.30;1.30;;;4.90;91.30;;;;;;6245671;23;20000;-78
2021/03/15 06:46:45;;;;;;;2.13;1.27;;;4.90;91.30;;;;;;6219490;23;20512;-77
2021/03/15 06:49:11;;;;;;;2.70;1.20;;;4.90;91.30;;;;;;6219362;23;20086;-76
2021/03/15 06:51:37;;;;;;;1.33;0.90;;;4.90;91.30;;;;;;6219074;23;20443;-77
2021/03/15 06:54:02;;;;;;;3.07;1.33;;;4.90;91.20;;;;;;6219358;23;20011;-76
2021/03/15 06:56:28;;;;;;;3.27;1.10;;;4.80;91.30;;;;;;6218297;23;20004;-76
2021/03/15 06:58:57;;;;;;;2.00;1.37;;;4.90;91.40;;;;;;6218785;23;20242;-76
2021/03/15 07:01:27;;;;;;;1.90;1.13;;;4.90;91.40;;;;;;6218268;23;20004;-77
2021/03/15 07:04:08;;;;;;;1.33;0.90;;;4.90;91.20;;;;;;6218775;23;20007;-76
2021/03/15 07:06:45;;;;;;;1.83;0.93;;;4.90;91.30;;;;;;6218462;23;20087;-77
2021/03/15 07:09:16;;;;;;;1.87;1.10;;;4.90;91.20;;;;;;6218331;23;20074;-77
2021/03/15 07:11:43;;;;;;;1.50;0.70;;;5.00;91.30;;;;;;6246151;23;20419;-76
2021/03/15 07:14:23;;;;;;;3.97;0.90;;;5.00;91.20;;;;;;6246436;23;19996;-76
2021/03/15 07:16:57;;;;;;;4.40;0.80;;;5.10;91.10;;;;;;6219452;23;20004;-76
2021/03/15 07:19:23;;;;;;;3.23;1.03;;;5.10;91.00;;;;;;6245661;23;20050;-77
2021/03/15 07:21:49;;;;;;;2.10;0.70;;;5.20;90.90;;;;;;6219483;23;20370;-76
2021/03/15 07:24:15;;;;;;;4.43;0.70;;;5.20;90.80;;;;;;6245539;23;20085;-76
2021/03/15 07:26:45;;;;;;;2.23;1.33;;;5.20;91.00;;;;;;6245703;23;20001;-76
2021/03/15 07:29:12;;;;;;;2.87;1.00;;;5.20;90.60;;;;;;6218119;23;20031;-76
2021/03/15 07:31:39;;;;;;;1.87;0.70;;;5.20;90.80;;;;;;6219235;23;20007;-76
2021/03/15 07:34:05;;;;;;;1.43;0.80;;;5.30;90.30;;;;;;6218944;23;20043;-74
2021/03/15 07:36:51;;;;;;;0.60;0.50;;;5.30;90.30;;;;;;6218662;23;20016;-73
2021/03/15 07:39:18;;;;;;;1.37;0.60;;;5.30;90.10;;;;;;6217668;23;20035;-76
2021/03/15 07:41:46;;;;;;;1.10;0.80;;;5.30;90.00;;;;;;6217219;23;20069;-73
2021/03/15 07:44:43;;;;;;;0.83;0.60;;;5.30;90.10;;;;;;6218152;23;20000;-73
2021/03/15 07:47:08;;;;;;;2.10;0.73;;;5.30;90.40;;;;;;6215326;23;20011;-73
2021/03/15 07:49:39;;;;;;;0.87;0.67;;;5.40;90.20;;;;;;6215781;23;20008;-72
2021/03/15 07:52:12;;;;;;;3.13;0.60;;;5.40;90.30;;;;;;6245093;23;20007;-74
2021/03/15 07:54:40;;;;;;;2.23;0.70;;;5.50;90.30;;;;;;6243915;23;20061;-74
2021/03/15 07:57:26;;;;;;;1.60;0.70;;;5.50;89.90;;;;;;6217875;23;20011;-74
2021/03/15 07:59:59;;;;;;;1.00;0.60;;;5.50;90.20;;;;;;6218391;23;20012;-75
2021/03/15 08:02:26;;;;;;;2.70;0.80;;;5.50;90.20;;;;;;6217813;23;20008;-76
2021/03/15 08:04:52;;;;;;;2.43;0.80;;;5.60;90.10;;;;;;6218496;23;20027;-74
2021/03/15 08:07:20;;;;;;;5.03;0.90;;;5.50;89.90;;;;;;6243903;23;20038;-75
2021/03/15 08:09:57;;;;;;;1.00;0.73;;;5.60;90.10;;;;;;6216742;23;20015;-73
2021/03/15 08:12:30;;;;;;;2.27;0.90;;;5.50;90.10;;;;;;6217283;23;20007;-74
2021/03/15 08:15:06;;;;;;;2.13;0.60;;;5.50;90.00;;;;;;6217829;23;19996;-73
2021/03/15 08:17:37;;;;;;;3.87;0.87;;;5.50;90.20;;;;;;6217399;23;20304;-73
2021/03/15 08:20:06;;;;;;;2.03;0.60;;;5.60;90.20;;;;;;6244249;23;20000;-74
2021/03/15 08:22:36;;;;;;;3.67;0.80;;;5.60;90.20;;;;;;6217006;23;19996;-75
2021/03/15 08:25:03;;;;;;;2.17;0.70;;;5.60;90.20;;;;;;6244420;23;20416;-75
2021/03/15 08:27:30;;;;;;;4.03;0.87;;;5.60;90.30;;;;;;6216904;23;20034;-76
2021/03/15 08:30:01;;;;;;;2.60;0.80;;;5.60;90.40;;;;;;6217229;23;20046;-75
2021/03/15 08:32:31;;;;;;;2.87;1.00;;;5.60;90.10;;;;;;6216953;23;20387;-75
2021/03/15 08:34:58;;;;;;;2.23;1.00;;;5.70;90.20;;;;;;6218679;22;20089;-76
2021/03/15 08:37:50;;;;;;;2.33;0.80;;;5.70;90.20;;;;;;6217177;23;20320;-73
2021/03/15 08:40:35;;;;;;;1.38;0.90;;;5.70;90.30;;;;;;6217720;23;20090;-74
2021/03/15 08:43:22;;;;;;;2.40;1.00;;;5.70;90.30;;;;;;6217381;23;19996;-76
2021/03/15 08:45:56;;;;;;;2.73;0.87;;;5.70;90.40;;;;;;6217392;23;20427;-75
2021/03/15 08:48:34;;;;;;;2.20;0.77;;;5.80;90.30;;;;;;6216791;23;20007;-76
2021/03/15 08:51:07;;;;;;;2.60;0.73;;;5.80;90.20;;;;;;6217653;23;20003;-77
2021/03/15 08:53:42;;;;;;;3.90;1.13;;;5.80;90.30;;;;;;6216565;23;20028;-75
2021/03/15 08:56:17;;;;;;;2.87;0.90;;;5.90;90.30;;;;;;6217149;23;20004;-75
2021/03/15 08:58:50;;;;;;;3.27;0.80;;;5.90;90.30;;;;;;6217216;23;20004;-74
2021/03/15 09:01:26;;;;;;;2.17;1.10;;;5.90;90.20;;;;;;6217570;23;20079;-74
2021/03/15 09:03:55;;;;;;;2.50;1.07;;;6.00;90.20;;;;;;6217094;23;20006;-75
2021/03/15 09:06:33;;;;;;;1.67;0.90;;;6.00;90.00;;;;;;6243442;23;20012;-78
2021/03/15 09:09:05;;;;;;;1.47;0.93;;;6.10;90.10;;;;;;6245268;23;20428;-75
2021/03/15 09:11:37;;;;;;;1.97;1.07;;;6.10;90.20;;;;;;6218475;23;20001;-73
2021/03/15 09:14:18;;;;;;;1.98;0.75;;;6.20;90.20;;;;;;6217717;23;20424;-74
2021/03/15 09:16:46;;;;;;;1.70;1.10;;;6.30;89.80;;;;;;6218048;23;20328;-76
2021/03/15 09:19:20;;;;;;;1.23;0.80;;;6.30;89.60;;;;;;6245847;23;20011;-77
2021/03/15 09:22:05;;;;;;;0.83;0.60;;;6.30;88.90;;;;;;6217673;23;20053;-77
2021/03/15 09:24:37;;;;;;;1.00;0.90;;;6.40;89.10;;;;;;6245259;23;20440;-77
2021/03/15 09:27:10;;;;;;;1.05;0.60;;;6.50;88.70;;;;;;6219095;23;20011;-76
2021/03/15 09:29:37;;;;;;;1.87;0.70;;;6.50;88.10;;;;;;6218667;23;20007;-77
2021/03/15 09:32:07;;;;;;;0.97;0.70;;;6.50;88.20;;;;;;6218083;23;20008;-76
2021/03/15 09:34:34;;;;;;;2.00;0.87;;;6.50;88.30;;;;;;6218529;23;20373;-77
2021/03/15 09:37:02;;;;;;;0.83;0.47;;;6.60;88.10;;;;;;6219207;23;20074;-77
2021/03/15 09:39:29;;;;;;;1.50;0.70;;;6.60;88.10;;;;;;6246131;23;20419;-76
2021/03/15 09:41:56;;;;;;;1.87;0.97;;;6.60;88.10;;;;;;6245535;23;20024;-78
2021/03/15 09:44:30;;;;;;;0.87;0.70;;;6.60;88.10;;;;;;6245030;23;20008;-75
2021/03/15 09:46:57;;;;;;;1.10;0.90;;;6.60;87.70;;;;;;6218425;23;20004;-78
2021/03/15 09:49:42;;;;;;;0.90;0.63;;;6.60;87.70;;;;;;6218600;23;20050;-79
2021/03/15 09:52:21;;;;;;;1.93;1.00;;;6.70;87.50;;;;;;6219285;23;20083;-76
2021/03/15 09:54:57;;;;;;;1.00;0.57;;;6.80;87.10;;;;;;6246099;23;20046;-76
2021/03/15 09:57:24;;;;;;;2.77;0.90;;;6.90;87.20;;;;;;6218800;23;20008;-81
2021/03/15 09:59:50;;;;;;;1.63;1.07;;;6.80;87.10;;;;;;6219111;23;20000;-75
2021/03/15 10:02:27;;;;;;;1.13;0.70;;;7.00;87.00;;;;;;6218902;23;20031;-75
2021/03/15 10:04:53;;;;;;;1.40;1.03;;;7.10;86.20;;;;;;6218750;23;20142;-78
2021/03/15 10:07:18;;;;;;;2.53;1.10;;;7.10;85.90;;;;;;6245911;23;20074;-76
2021/03/15 10:09:44;;;;;;;3.60;1.10;;;7.20;86.10;;;;;;6217980;23;20046;-79
2021/03/15 10:12:19;;;;;;;3.30;1.30;;;7.30;85.80;;;;;;6218803;23;20008;-74
2021/03/15 10:14:44;;;;;;;1.43;1.10;;;7.30;85.20;;;;;;6218412;23;20091;-72
2021/03/15 10:17:18;;;;;;;2.00;1.00;;;7.40;85.70;;;;;;6218595;23;20047;-75
2021/03/15 10:19:44;;;;;;;1.63;1.00;;;7.50;85.20;;;;;;6218056;23;20396;-73
2021/03/15 10:22:11;;;;;;;2.03;1.20;;;7.50;85.30;;;;;;6218531;23;20011;-75
2021/03/15 10:24:38;;;;;;;2.07;1.00;;;7.70;84.70;;;;;;6218331;23;20000;-74
2021/03/15 10:27:07;;;;;;;1.70;0.97;;;7.80;84.20;;;;;;6245679;23;20007;-74
2021/03/15 10:29:33;;;;;;;1.73;1.10;;;7.90;84.00;;;;;;6218066;23;20004;-75
2021/03/15 10:32:03;;;;;;;1.67;1.20;;;8.00;84.00;;;;;;6245726;23;20004;-75
2021/03/15 10:34:29;;;;;;;3.10;1.30;;;8.00;83.80;;;;;;6217913;23;20070;-75
2021/03/15 10:36:57;;;;;;;1.93;1.20;;;8.10;83.70;;;;;;6213448;23;20016;-76
2021/03/15 10:39:24;;;;;;;2.53;1.43;;;8.20;83.30;;;;;;6213310;23;20127;-78
2021/03/15 10:41:51;;;;;;;2.20;1.20;;;8.20;83.10;;;;;;6213669;23;20391;-77
2021/03/15 10:44:22;;;;;;;3.67;1.43;;;8.20;82.80;;;;;;6214207;23;20004;-76
2021/03/15 10:46:53;;;;;;;3.10;1.00;;;8.20;82.80;;;;;;6213321;23;20004;-78
2021/03/15 10:49:25;;;;;;;2.80;1.20;;;8.30;82.80;;;;;;6215575;23;20031;-78
2021/03/15 10:51:54;;;;;;;1.20;1.00;;;8.30;82.00;;;;;;6215486;23;19989;-76
2021/03/15 10:54:46;;;;;;;1.63;0.67;;;8.50;81.70;;;;;;6215628;23;19995;-77
2021/03/15 10:57:12;;;;;;;1.55;0.52;;;8.60;78.80;;;;;;6208047;23;20107;-76
2021/03/15 10:59:38;;;;;;;2.63;0.90;;;8.60;78.30;;;;;;6214833;23;20028;-76
2021/03/15 11:02:04;;;;;;;0.90;0.70;;;8.70;78.60;;;;;;6213714;23;20059;-76
2021/03/15 11:04:35;;;;;;;1.10;0.70;;;8.80;77.60;;;;;;6213675;23;20004;-78
2021/03/15 11:07:26;;;;;;;1.53;0.67;;;8.80;77.30;;;;;;6214894;23;20008;-76
2021/03/15 11:10:00;;;;;;;0.53;0.33;;;8.80;77.20;;;;;;6213186;23;19997;-76
2021/03/15 11:12:35;;;;;;;1.63;0.60;;;8.90;77.20;;;;;;6214060;23;20008;-76
2021/03/15 11:15:32;;;;;;;0.88;0.40;;;8.90;76.60;;;;;;6212585;23;20008;-76
2021/03/15 11:18:11;;;;;;;0.40;0.30;;;9.00;75.90;;;;;;6203915;23;20012;-73
2021/03/15 11:20:44;;;;;;;0.35;0.28;;;9.00;74.50;;;;;;6212736;23;20005;-77
2021/03/15 11:23:11;;;;;;;2.85;1.35;;;9.00;73.00;;;;;;6213620;23;20011;-77
2021/03/15 11:25:37;;;;;;;19.10;7.97;;;9.10;71.50;;;;;;6214070;23;20008;-75
2021/03/15 11:28:14;;;;;;;1.33;0.70;;;9.20;70.20;;;;;;6213445;23;20352;-74
2021/03/15 11:30:43;;;;;;;1.08;0.55;;;9.20;68.40;;;;;;6212139;23;20462;-75
2021/03/15 11:33:10;;;;;;;0.55;0.38;;;9.20;68.80;;;;;;6213136;23;20032;-75
2021/03/15 11:35:38;;;;;;;0.73;0.50;;;9.30;67.10;;;;;;6212100;23;20099;-74
2021/03/15 11:38:04;;;;;;;0.55;0.30;;;9.30;67.00;;;;;;6213031;23;20025;-74
2021/03/15 11:40:37;;;;;;;0.30;0.30;;;9.30;66.60;;;;;;6214214;23;20001;-77
2021/03/15 11:43:04;;;;;;;1.17;0.30;;;9.40;66.70;;;;;;6215307;23;19997;-76
2021/03/15 11:45:30;;;;;;;1.40;0.30;;;9.40;67.00;;;;;;6212202;23;20013;-76
2021/03/15 11:47:56;;;;;;;1.25;0.30;;;9.40;66.80;;;;;;6212959;23;20036;-75
2021/03/15 11:50:23;;;;;;;1.15;0.40;;;9.40;65.70;;;;;;6214382;23;19997;-81
2021/03/15 11:52:51;;;;;;;0.43;0.30;;;9.40;65.10;;;;;;6212969;23;20001;-75
2021/03/15 11:55:17;;;;;;;0.40;0.28;;;9.50;64.30;;;;;;6212745;23;20000;-75
2021/03/15 11:57:43;;;;;;;1.00;0.52;;;9.50;64.40;;;;;;6212229;23;20066;-75
2021/03/15 12:00:11;;;;;;;1.33;0.50;;;9.70;63.10;;;;;;6212603;23;20005;-75
2021/03/15 12:02:37;;;;;;;1.58;0.50;;;9.80;63.90;;;;;;6212071;23;20012;-77
2021/03/15 12:05:09;;;;;;;1.05;0.43;;;9.80;64.30;;;;;;6212692;23;20004;-75
2021/03/15 12:07:35;;;;;;;1.20;0.40;;;9.80;65.60;;;;;;6213594;23;20087;-75
2021/03/15 12:10:01;;;;;;;0.30;0.30;;;9.80;65.70;;;;;;6212525;23;20059;-74
2021/03/15 12:12:27;;;;;;;0.90;0.40;;;9.70;66.00;;;;;;6211521;23;20088;-74
2021/03/15 12:14:54;;;;;;;0.30;0.30;;;9.80;65.50;;;;;;6212096;23;20024;-74
2021/03/15 12:17:20;;;;;;;0.50;0.40;;;9.80;65.00;;;;;;6214146;23;20009;-74
2021/03/15 12:19:45;;;;;;;1.15;0.50;;;9.90;65.40;;;;;;6213490;23;19992;-74
2021/03/15 12:22:11;;;;;;;0.90;0.82;;;10.00;64.50;;;;;;6212881;23;19997;-74
2021/03/15 12:24:36;;;;;;;1.30;0.40;;;10.00;63.40;;;;;;6213845;23;20008;-75
2021/03/15 12:27:02;;;;;;;0.82;0.57;;;10.10;63.20;;;;;;6213049;23;20010;-75
2021/03/15 12:29:29;;;;;;;0.70;0.50;;;10.20;63.40;;;;;;6213623;23;20051;-75
2021/03/15 12:31:54;;;;;;;0.98;0.50;;;10.30;61.70;;;;;;6214463;23;20001;-74
2021/03/15 12:34:21;;;;;;;1.83;0.55;;;10.40;60.00;;;;;;6212358;23;20028;-75
2021/03/15 12:36:46;;;;;;;0.70;0.50;;;10.30;60.70;;;;;;6239690;23;20101;-74
2021/03/15 12:39:12;;;;;;;0.50;0.50;;;10.30;60.70;;;;;;6217439;23;20355;-76
2021/03/15 12:41:38;;;;;;;1.20;0.52;;;10.50;60.90;;;;;;6245011;23;20362;-75
2021/03/15 12:44:04;;;;;;;0.93;0.50;;;10.80;60.10;;;;;;6246750;23;20315;-76
2021/03/15 12:46:30;;;;;;;0.73;0.45;;;10.90;59.40;;;;;;6218943;23;20003;-76
2021/03/15 12:48:56;;;;;;;0.52;0.50;;;10.90;58.90;;;;;;6219403;23;20324;-76
2021/03/15 12:51:22;;;;;;;0.55;0.40;;;11.10;58.00;;;;;;6219720;23;19997;-76
2021/03/15 12:53:48;;;;;;;2.70;0.60;;;11.10;59.90;;;;;;6219142;23;20008;-78
2021/03/15 12:56:13;;;;;;;1.23;0.60;;;10.90;57.50;;;;;;6246221;23;20331;-75
2021/03/15 12:58:39;;;;;;;1.23;1.00;;;10.70;55.70;;;;;;6246031;23;20000;-76
2021/03/15 13:01:05;;;;;;;4.40;2.50;;;10.30;55.20;;;;;;6219946;23;20457;-76
2021/03/15 13:03:31;;;;;;;1.45;0.90;;;10.10;56.20;;;;;;6245964;23;20027;-75
2021/03/15 13:05:56;;;;;;;3.03;0.68;;;10.40;56.30;;;;;;6219279;23;20004;-76
2021/03/15 13:08:22;;;;;;;1.10;0.63;;;11.00;56.30;;;;;;6219431;23;20004;-75
2021/03/15 13:10:48;;;;;;;1.45;0.68;;;11.50;53.80;;;;;;6218721;23;20427;-77